sensor_id;sensor_type;location;lat;lon;timestamp;P1;durP1;ratioP1;P2;durP2;ratioP2
19189;SDS011;9727;50.200;19.038;2023-07-20T00:02:21;6.07;;;3.50;;
19189;SDS011;9727;50.200;19.038;2023-07-20T00:04:48;4.45;;;2.85;;
19189;SDS011;9727;50.200;19.038;2023-07-20T00:07:20;7.07;;;3.55;;
19189;SDS011;9727;50.200;19.038;2023-07-20T00:09:48;10.68;;;3.40;;
19189;SDS011;9727;50.200;19.038;2023-07-20T00:12:18;9.85;;;4.00;;
19189;SDS011;9727;50.200;19.038;2023-07-20T00:14:45;11.70;;;4.97;;
19189;SDS011;9727;50.200;19.038;2023-07-20T00:17:11;9.02;;;5.68;;
19189;SDS011;9727;50.200;19.038;2023-07-20T00:19:41;12.23;;;5.82;;
19189;SDS011;9727;50.200;19.038;2023-07-20T00:22:08;9.60;;;5.38;;
19189;SDS011;9727;50.200;19.038;2023-07-20T00:24:41;8.50;;;5.00;;
19189;SDS011;9727;50.200;19.038;2023-07-20T00:27:09;8.20;;;5.25;;
19189;SDS011;9727;50.200;19.038;2023-07-20T00:29:35;10.52;;;4.85;;
19189;SDS011;9727;50.200;19.038;2023-07-20T00:32:02;9.52;;;4.57;;
19189;SDS011;9727;50.200;19.038;2023-07-20T00:34:30;10.82;;;5.03;;
19189;SDS011;9727;50.200;19.038;2023-07-20T00:36:56;10.10;;;4.93;;
19189;SDS011;9727;50.200;19.038;2023-07-20T00:39:23;6.47;;;4.25;;
19189;SDS011;9727;50.200;19.038;2023-07-20T00:41:50;7.47;;;4.90;;
19189;SDS011;9727;50.200;19.038;2023-07-20T00:44:21;5.85;;;3.85;;
19189;SDS011;9727;50.200;19.038;2023-07-20T00:46:48;7.68;;;3.78;;
19189;SDS011;9727;50.200;19.038;2023-07-20T00:49:22;5.40;;;3.13;;
19189;SDS011;9727;50.200;19.038;2023-07-20T00:51:50;5.63;;;3.05;;
19189;SDS011;9727;50.200;19.038;2023-07-20T00:54:22;6.53;;;3.20;;
19189;SDS011;9727;50.200;19.038;2023-07-20T00:56:49;7.95;;;3.47;;
19189;SDS011;9727;50.200;19.038;2023-07-20T00:59:22;7.80;;;3.40;;
19189;SDS011;9727;50.200;19.038;2023-07-20T01:01:48;6.45;;;3.45;;
19189;SDS011;9727;50.200;19.038;2023-07-20T01:04:22;11.43;;;3.65;;
19189;SDS011;9727;50.200;19.038;2023-07-20T01:06:53;6.55;;;3.17;;
19189;SDS011;9727;50.200;19.038;2023-07-20T01:09:24;5.35;;;2.90;;
19189;SDS011;9727;50.200;19.038;2023-07-20T01:11:53;3.97;;;2.70;;
19189;SDS011;9727;50.200;19.038;2023-07-20T01:14:24;4.97;;;3.25;;
19189;SDS011;9727;50.200;19.038;2023-07-20T01:16:53;6.60;;;3.45;;
19189;SDS011;9727;50.200;19.038;2023-07-20T01:19:20;3.45;;;2.83;;
19189;SDS011;9727;50.200;19.038;2023-07-20T01:21:48;5.45;;;3.25;;
19189;SDS011;9727;50.200;19.038;2023-07-20T01:24:30;6.35;;;2.80;;
19189;SDS011;9727;50.200;19.038;2023-07-20T01:27:00;6.97;;;3.60;;
19189;SDS011;9727;50.200;19.038;2023-07-20T01:29:43;7.13;;;3.17;;
19189;SDS011;9727;50.200;19.038;2023-07-20T01:32:22;4.05;;;2.95;;
19189;SDS011;9727;50.200;19.038;2023-07-20T01:34:50;4.32;;;3.30;;
19189;SDS011;9727;50.200;19.038;2023-07-20T01:37:20;6.22;;;3.40;;
19189;SDS011;9727;50.200;19.038;2023-07-20T01:39:50;5.30;;;3.28;;
19189;SDS011;9727;50.200;19.038;2023-07-20T01:42:20;6.70;;;3.30;;
19189;SDS011;9727;50.200;19.038;2023-07-20T01:44:47;5.22;;;3.35;;
19189;SDS011;9727;50.200;19.038;2023-07-20T01:47:21;4.97;;;3.60;;
19189;SDS011;9727;50.200;19.038;2023-07-20T01:49:47;6.43;;;3.95;;
19189;SDS011;9727;50.200;19.038;2023-07-20T01:52:18;8.37;;;3.30;;
19189;SDS011;9727;50.200;19.038;2023-07-20T01:54:45;4.20;;;3.60;;
19189;SDS011;9727;50.200;19.038;2023-07-20T01:57:12;4.82;;;3.63;;
19189;SDS011;9727;50.200;19.038;2023-07-20T01:59:45;7.20;;;3.93;;
19189;SDS011;9727;50.200;19.038;2023-07-20T02:02:12;5.32;;;3.63;;
19189;SDS011;9727;50.200;19.038;2023-07-20T02:04:47;6.28;;;3.38;;
19189;SDS011;9727;50.200;19.038;2023-07-20T02:07:20;5.35;;;3.90;;
19189;SDS011;9727;50.200;19.038;2023-07-20T02:09:47;8.00;;;3.85;;
19189;SDS011;9727;50.200;19.038;2023-07-20T02:12:20;5.95;;;3.92;;
19189;SDS011;9727;50.200;19.038;2023-07-20T02:14:46;4.93;;;3.63;;
19189;SDS011;9727;50.200;19.038;2023-07-20T02:17:18;8.93;;;4.13;;
19189;SDS011;9727;50.200;19.038;2023-07-20T02:19:46;7.27;;;3.63;;
19189;SDS011;9727;50.200;19.038;2023-07-20T02:22:21;8.00;;;3.80;;
19189;SDS011;9727;50.200;19.038;2023-07-20T02:24:47;6.03;;;3.13;;
19189;SDS011;9727;50.200;19.038;2023-07-20T02:27:22;6.90;;;3.20;;
19189;SDS011;9727;50.200;19.038;2023-07-20T02:29:52;3.97;;;3.27;;
19189;SDS011;9727;50.200;19.038;2023-07-20T02:32:19;6.87;;;3.10;;
19189;SDS011;9727;50.200;19.038;2023-07-20T02:34:47;7.63;;;3.50;;
19189;SDS011;9727;50.200;19.038;2023-07-20T02:37:19;7.53;;;3.70;;
19189;SDS011;9727;50.200;19.038;2023-07-20T02:39:48;5.85;;;3.50;;
19189;SDS011;9727;50.200;19.038;2023-07-20T02:42:21;6.25;;;3.65;;
19189;SDS011;9727;50.200;19.038;2023-07-20T02:44:54;9.00;;;3.80;;
19189;SDS011;9727;50.200;19.038;2023-07-20T02:47:21;5.70;;;3.60;;
19189;SDS011;9727;50.200;19.038;2023-07-20T02:49:49;7.83;;;3.83;;
19189;SDS011;9727;50.200;19.038;2023-07-20T02:52:21;4.37;;;3.33;;
19189;SDS011;9727;50.200;19.038;2023-07-20T02:54:48;5.40;;;3.50;;
19189;SDS011;9727;50.200;19.038;2023-07-20T02:57:22;4.47;;;3.53;;
19189;SDS011;9727;50.200;19.038;2023-07-20T02:59:54;5.03;;;3.63;;
19189;SDS011;9727;50.200;19.038;2023-07-20T03:02:21;6.47;;;3.90;;
19189;SDS011;9727;50.200;19.038;2023-07-20T03:04:49;6.57;;;3.50;;
19189;SDS011;9727;50.200;19.038;2023-07-20T03:07:23;10.83;;;3.70;;
19189;SDS011;9727;50.200;19.038;2023-07-20T03:09:50;5.27;;;3.60;;
19189;SDS011;9727;50.200;19.038;2023-07-20T03:12:25;10.17;;;3.97;;
19189;SDS011;9727;50.200;19.038;2023-07-20T03:14:53;7.97;;;4.27;;
19189;SDS011;9727;50.200;19.038;2023-07-20T03:17:22;7.23;;;3.77;;
19189;SDS011;9727;50.200;19.038;2023-07-20T03:19:50;6.50;;;3.33;;
19189;SDS011;9727;50.200;19.038;2023-07-20T03:22:21;5.97;;;3.70;;
19189;SDS011;9727;50.200;19.038;2023-07-20T03:24:49;11.60;;;3.70;;
19189;SDS011;9727;50.200;19.038;2023-07-20T03:27:20;6.67;;;3.93;;
19189;SDS011;9727;50.200;19.038;2023-07-20T03:29:49;7.47;;;3.53;;
19189;SDS011;9727;50.200;19.038;2023-07-20T03:32:22;6.43;;;3.77;;
19189;SDS011;9727;50.200;19.038;2023-07-20T03:34:50;5.53;;;3.97;;
19189;SDS011;9727;50.200;19.038;2023-07-20T03:37:28;6.70;;;4.10;;
19189;SDS011;9727;50.200;19.038;2023-07-20T03:39:55;8.63;;;4.23;;
19189;SDS011;9727;50.200;19.038;2023-07-20T03:42:27;6.13;;;4.23;;
19189;SDS011;9727;50.200;19.038;2023-07-20T03:44:53;8.00;;;3.93;;
19189;SDS011;9727;50.200;19.038;2023-07-20T03:47:23;8.20;;;4.13;;
19189;SDS011;9727;50.200;19.038;2023-07-20T03:49:51;10.37;;;4.20;;
19189;SDS011;9727;50.200;19.038;2023-07-20T03:52:21;6.20;;;3.77;;
19189;SDS011;9727;50.200;19.038;2023-07-20T03:54:49;5.43;;;3.90;;
19189;SDS011;9727;50.200;19.038;2023-07-20T03:57:19;7.73;;;3.43;;
19189;SDS011;9727;50.200;19.038;2023-07-20T03:59:45;4.93;;;3.63;;
19189;SDS011;9727;50.200;19.038;2023-07-20T04:02:12;5.10;;;3.60;;
19189;SDS011;9727;50.200;19.038;2023-07-20T04:04:45;6.77;;;3.33;;
19189;SDS011;9727;50.200;19.038;2023-07-20T04:07:20;6.87;;;3.43;;
19189;SDS011;9727;50.200;19.038;2023-07-20T04:09:49;6.87;;;3.77;;
19189;SDS011;9727;50.200;19.038;2023-07-20T04:12:25;5.77;;;3.97;;
19189;SDS011;9727;50.200;19.038;2023-07-20T04:14:52;9.33;;;4.63;;
19189;SDS011;9727;50.200;19.038;2023-07-20T04:17:19;7.30;;;4.40;;
19189;SDS011;9727;50.200;19.038;2023-07-20T04:19:45;5.87;;;4.00;;
19189;SDS011;9727;50.200;19.038;2023-07-20T04:22:18;7.93;;;4.07;;
19189;SDS011;9727;50.200;19.038;2023-07-20T04:24:46;9.50;;;4.30;;
19189;SDS011;9727;50.200;19.038;2023-07-20T04:27:20;9.70;;;4.13;;
19189;SDS011;9727;50.200;19.038;2023-07-20T04:29:46;7.87;;;3.60;;
19189;SDS011;9727;50.200;19.038;2023-07-20T04:32:19;6.97;;;4.20;;
19189;SDS011;9727;50.200;19.038;2023-07-20T04:34:45;5.33;;;3.97;;
19189;SDS011;9727;50.200;19.038;2023-07-20T04:37:19;6.20;;;3.70;;
19189;SDS011;9727;50.200;19.038;2023-07-20T04:39:45;6.63;;;4.17;;
19189;SDS011;9727;50.200;19.038;2023-07-20T04:42:27;6.53;;;3.77;;
19189;SDS011;9727;50.200;19.038;2023-07-20T04:44:59;5.20;;;3.43;;
19189;SDS011;9727;50.200;19.038;2023-07-20T04:47:26;7.03;;;3.60;;
19189;SDS011;9727;50.200;19.038;2023-07-20T04:49:55;6.43;;;3.73;;
19189;SDS011;9727;50.200;19.038;2023-07-20T04:52:23;5.77;;;3.23;;
19189;SDS011;9727;50.200;19.038;2023-07-20T04:54:50;7.47;;;3.40;;
19189;SDS011;9727;50.200;19.038;2023-07-20T04:57:23;8.17;;;3.20;;
19189;SDS011;9727;50.200;19.038;2023-07-20T04:59:51;5.97;;;3.60;;
19189;SDS011;9727;50.200;19.038;2023-07-20T05:02:21;8.20;;;3.90;;
19189;SDS011;9727;50.200;19.038;2023-07-20T05:04:48;4.50;;;3.30;;
19189;SDS011;9727;50.200;19.038;2023-07-20T05:07:21;6.07;;;3.77;;
19189;SDS011;9727;50.200;19.038;2023-07-20T05:09:52;5.10;;;3.90;;
19189;SDS011;9727;50.200;19.038;2023-07-20T05:12:19;7.30;;;4.50;;
19189;SDS011;9727;50.200;19.038;2023-07-20T05:14:46;6.87;;;4.27;;
19189;SDS011;9727;50.200;19.038;2023-07-20T05:17:12;8.50;;;4.43;;
19189;SDS011;9727;50.200;19.038;2023-07-20T05:19:45;6.87;;;4.00;;
19189;SDS011;9727;50.200;19.038;2023-07-20T05:22:14;6.77;;;4.00;;
19189;SDS011;9727;50.200;19.038;2023-07-20T05:24:47;6.03;;;4.07;;
19189;SDS011;9727;50.200;19.038;2023-07-20T05:27:24;6.37;;;4.10;;
19189;SDS011;9727;50.200;19.038;2023-07-20T05:29:50;6.85;;;4.07;;
19189;SDS011;9727;50.200;19.038;2023-07-20T05:32:23;8.52;;;4.68;;
19189;SDS011;9727;50.200;19.038;2023-07-20T05:34:51;5.93;;;4.50;;
19189;SDS011;9727;50.200;19.038;2023-07-20T05:37:19;6.53;;;4.37;;
19189;SDS011;9727;50.200;19.038;2023-07-20T05:39:47;8.33;;;4.70;;
19189;SDS011;9727;50.200;19.038;2023-07-20T05:42:19;7.13;;;4.50;;
19189;SDS011;9727;50.200;19.038;2023-07-20T05:44:47;8.10;;;4.60;;
19189;SDS011;9727;50.200;19.038;2023-07-20T05:47:21;6.17;;;4.40;;
19189;SDS011;9727;50.200;19.038;2023-07-20T05:49:47;5.50;;;3.87;;
19189;SDS011;9727;50.200;19.038;2023-07-20T05:52:19;6.20;;;4.30;;
19189;SDS011;9727;50.200;19.038;2023-07-20T05:54:47;6.13;;;3.87;;
19189;SDS011;9727;50.200;19.038;2023-07-20T05:57:19;5.47;;;3.53;;
19189;SDS011;9727;50.200;19.038;2023-07-20T05:59:50;4.77;;;3.53;;
19189;SDS011;9727;50.200;19.038;2023-07-20T06:02:21;6.13;;;4.05;;
19189;SDS011;9727;50.200;19.038;2023-07-20T06:04:48;6.53;;;3.30;;
19189;SDS011;9727;50.200;19.038;2023-07-20T06:07:29;7.40;;;3.55;;
19189;SDS011;9727;50.200;19.038;2023-07-20T06:09:56;5.78;;;3.70;;
19189;SDS011;9727;50.200;19.038;2023-07-20T06:12:23;3.92;;;3.20;;
19189;SDS011;9727;50.200;19.038;2023-07-20T06:14:52;5.65;;;3.40;;
19189;SDS011;9727;50.200;19.038;2023-07-20T06:17:20;5.30;;;3.60;;
19189;SDS011;9727;50.200;19.038;2023-07-20T06:19:47;4.90;;;3.03;;
19189;SDS011;9727;50.200;19.038;2023-07-20T06:22:19;8.98;;;3.45;;
19189;SDS011;9727;50.200;19.038;2023-07-20T06:24:45;7.50;;;3.28;;
19189;SDS011;9727;50.200;19.038;2023-07-20T06:27:12;4.85;;;3.30;;
19189;SDS011;9727;50.200;19.038;2023-07-20T06:29:48;4.82;;;3.55;;
19189;SDS011;9727;50.200;19.038;2023-07-20T06:32:19;6.07;;;3.25;;
19189;SDS011;9727;50.200;19.038;2023-07-20T06:34:46;4.57;;;3.55;;
19189;SDS011;9727;50.200;19.038;2023-07-20T06:37:12;7.65;;;3.83;;
19189;SDS011;9727;50.200;19.038;2023-07-20T06:39:45;6.82;;;3.40;;
19189;SDS011;9727;50.200;19.038;2023-07-20T06:42:12;4.00;;;3.25;;
19189;SDS011;9727;50.200;19.038;2023-07-20T06:44:47;5.10;;;3.70;;
19189;SDS011;9727;50.200;19.038;2023-07-20T06:47:21;4.13;;;3.17;;
19189;SDS011;9727;50.200;19.038;2023-07-20T06:49:49;5.72;;;3.63;;
19189;SDS011;9727;50.200;19.038;2023-07-20T06:52:24;5.47;;;2.80;;
19189;SDS011;9727;50.200;19.038;2023-07-20T06:54:51;5.35;;;2.63;;
19189;SDS011;9727;50.200;19.038;2023-07-20T06:57:19;7.50;;;2.85;;
19189;SDS011;9727;50.200;19.038;2023-07-20T06:59:46;4.25;;;2.40;;
19189;SDS011;9727;50.200;19.038;2023-07-20T07:02:19;2.78;;;2.00;;
19189;SDS011;9727;50.200;19.038;2023-07-20T07:04:47;4.97;;;2.30;;
19189;SDS011;9727;50.200;19.038;2023-07-20T07:07:20;2.47;;;1.95;;
19189;SDS011;9727;50.200;19.038;2023-07-20T07:09:47;3.72;;;2.17;;
19189;SDS011;9727;50.200;19.038;2023-07-20T07:12:21;4.03;;;2.42;;
19189;SDS011;9727;50.200;19.038;2023-07-20T07:14:48;2.90;;;2.03;;
19189;SDS011;9727;50.200;19.038;2023-07-20T07:17:20;4.95;;;2.60;;
19189;SDS011;9727;50.200;19.038;2023-07-20T07:19:48;3.53;;;2.05;;
19189;SDS011;9727;50.200;19.038;2023-07-20T07:22:19;2.60;;;1.98;;
19189;SDS011;9727;50.200;19.038;2023-07-20T07:24:46;3.45;;;2.20;;
19189;SDS011;9727;50.200;19.038;2023-07-20T07:27:23;4.82;;;2.00;;
19189;SDS011;9727;50.200;19.038;2023-07-20T07:29:50;3.28;;;2.03;;
19189;SDS011;9727;50.200;19.038;2023-07-20T07:32:19;3.03;;;2.05;;
19189;SDS011;9727;50.200;19.038;2023-07-20T07:34:46;2.47;;;1.60;;
19189;SDS011;9727;50.200;19.038;2023-07-20T07:37:20;3.25;;;2.00;;
19189;SDS011;9727;50.200;19.038;2023-07-20T07:39:48;2.15;;;1.58;;
19189;SDS011;9727;50.200;19.038;2023-07-20T07:42:29;3.80;;;1.48;;
19189;SDS011;9727;50.200;19.038;2023-07-20T07:45:04;2.05;;;1.50;;
19189;SDS011;9727;50.200;19.038;2023-07-20T07:47:32;2.05;;;1.45;;
19189;SDS011;9727;50.200;19.038;2023-07-20T07:49:58;4.28;;;1.40;;
19189;SDS011;9727;50.200;19.038;2023-07-20T07:52:27;7.50;;;1.67;;
19189;SDS011;9727;50.200;19.038;2023-07-20T07:54:55;1.48;;;1.30;;
19189;SDS011;9727;50.200;19.038;2023-07-20T07:57:22;2.25;;;1.40;;
19189;SDS011;9727;50.200;19.038;2023-07-20T07:59:55;1.73;;;1.33;;
19189;SDS011;9727;50.200;19.038;2023-07-20T08:02:22;2.25;;;1.38;;
19189;SDS011;9727;50.200;19.038;2023-07-20T08:04:49;2.00;;;1.50;;
19189;SDS011;9727;50.200;19.038;2023-07-20T08:07:28;1.77;;;1.60;;
19189;SDS011;9727;50.200;19.038;2023-07-20T08:09:55;1.48;;;1.25;;
19189;SDS011;9727;50.200;19.038;2023-07-20T08:12:21;1.77;;;1.27;;
19189;SDS011;9727;50.200;19.038;2023-07-20T08:14:48;1.20;;;1.10;;
19189;SDS011;9727;50.200;19.038;2023-07-20T08:17:23;2.63;;;1.50;;
19189;SDS011;9727;50.200;19.038;2023-07-20T08:19:49;1.85;;;1.40;;
19189;SDS011;9727;50.200;19.038;2023-07-20T08:22:24;2.22;;;1.50;;
19189;SDS011;9727;50.200;19.038;2023-07-20T08:24:59;2.83;;;1.70;;
19189;SDS011;9727;50.200;19.038;2023-07-20T08:27:26;3.28;;;1.65;;
19189;SDS011;9727;50.200;19.038;2023-07-20T08:29:53;2.95;;;1.55;;
19189;SDS011;9727;50.200;19.038;2023-07-20T08:32:20;2.85;;;1.65;;
19189;SDS011;9727;50.200;19.038;2023-07-20T08:34:50;3.05;;;1.73;;
19189;SDS011;9727;50.200;19.038;2023-07-20T08:37:23;3.35;;;1.73;;
19189;SDS011;9727;50.200;19.038;2023-07-20T08:39:50;2.17;;;1.85;;
19189;SDS011;9727;50.200;19.038;2023-07-20T08:42:24;4.75;;;2.03;;
19189;SDS011;9727;50.200;19.038;2023-07-20T08:44:52;3.47;;;1.90;;
19189;SDS011;9727;50.200;19.038;2023-07-20T08:47:21;2.95;;;2.00;;
19189;SDS011;9727;50.200;19.038;2023-07-20T08:49:49;4.43;;;2.08;;
19189;SDS011;9727;50.200;19.038;2023-07-20T08:52:19;5.60;;;2.58;;
19189;SDS011;9727;50.200;19.038;2023-07-20T08:54:45;3.70;;;2.47;;
19189;SDS011;9727;50.200;19.038;2023-07-20T08:57:13;3.08;;;2.72;;
19189;SDS011;9727;50.200;19.038;2023-07-20T09:00:04;5.13;;;3.28;;
19189;SDS011;9727;50.200;19.038;2023-07-20T09:02:35;6.00;;;3.40;;
19189;SDS011;9727;50.200;19.038;2023-07-20T09:05:02;3.95;;;3.13;;
19189;SDS011;9727;50.200;19.038;2023-07-20T09:07:31;5.43;;;3.30;;
19189;SDS011;9727;50.200;19.038;2023-07-20T09:09:58;3.90;;;3.20;;
19189;SDS011;9727;50.200;19.038;2023-07-20T09:12:31;4.95;;;3.60;;
19189;SDS011;9727;50.200;19.038;2023-07-20T09:14:58;4.63;;;3.40;;
19189;SDS011;9727;50.200;19.038;2023-07-20T09:17:29;3.90;;;3.10;;
19189;SDS011;9727;50.200;19.038;2023-07-20T09:19:56;6.20;;;3.40;;
19189;SDS011;9727;50.200;19.038;2023-07-20T09:22:26;6.22;;;3.90;;
19189;SDS011;9727;50.200;19.038;2023-07-20T09:27:49;9.55;;;4.30;;
19189;SDS011;9727;50.200;19.038;2023-07-20T09:30:21;5.20;;;3.58;;
19189;SDS011;9727;50.200;19.038;2023-07-20T09:32:54;6.47;;;3.45;;
19189;SDS011;9727;50.200;19.038;2023-07-20T09:35:21;6.90;;;4.03;;
19189;SDS011;9727;50.200;19.038;2023-07-20T09:37:54;6.65;;;3.90;;
19189;SDS011;9727;50.200;19.038;2023-07-20T09:40:21;4.97;;;3.67;;
19189;SDS011;9727;50.200;19.038;2023-07-20T09:42:48;16.05;;;4.30;;
19189;SDS011;9727;50.200;19.038;2023-07-20T09:45:28;7.72;;;4.68;;
19189;SDS011;9727;50.200;19.038;2023-07-20T09:48:00;5.47;;;3.88;;
19189;SDS011;9727;50.200;19.038;2023-07-20T09:50:29;5.45;;;3.88;;
19189;SDS011;9727;50.200;19.038;2023-07-20T09:52:56;5.22;;;3.80;;
19189;SDS011;9727;50.200;19.038;2023-07-20T09:55:23;4.80;;;3.85;;
19189;SDS011;9727;50.200;19.038;2023-07-20T09:57:50;4.50;;;3.78;;
19189;SDS011;9727;50.200;19.038;2023-07-20T10:00:20;5.93;;;4.35;;
19189;SDS011;9727;50.200;19.038;2023-07-20T10:02:47;7.78;;;4.47;;
19189;SDS011;9727;50.200;19.038;2023-07-20T10:05:22;4.95;;;4.07;;
19189;SDS011;9727;50.200;19.038;2023-07-20T10:07:49;8.48;;;4.93;;
19189;SDS011;9727;50.200;19.038;2023-07-20T10:10:22;7.28;;;4.78;;
19189;SDS011;9727;50.200;19.038;2023-07-20T10:12:49;7.15;;;5.20;;
19189;SDS011;9727;50.200;19.038;2023-07-20T10:15:23;8.30;;;5.47;;
19189;SDS011;9727;50.200;19.038;2023-07-20T10:17:55;6.53;;;4.63;;
19189;SDS011;9727;50.200;19.038;2023-07-20T10:20:32;6.82;;;4.65;;
19189;SDS011;9727;50.200;19.038;2023-07-20T10:22:59;7.38;;;5.07;;
19189;SDS011;9727;50.200;19.038;2023-07-20T10:25:27;9.10;;;5.53;;
19189;SDS011;9727;50.200;19.038;2023-07-20T10:27:54;6.00;;;5.40;;
19189;SDS011;9727;50.200;19.038;2023-07-20T10:30:21;8.95;;;5.40;;
19189;SDS011;9727;50.200;19.038;2023-07-20T10:32:48;8.48;;;5.78;;
19189;SDS011;9727;50.200;19.038;2023-07-20T10:35:27;7.93;;;5.00;;
19189;SDS011;9727;50.200;19.038;2023-07-20T10:40:59;7.90;;;5.80;;
19189;SDS011;9727;50.200;19.038;2023-07-20T10:43:28;8.73;;;5.40;;
19189;SDS011;9727;50.200;19.038;2023-07-20T10:45:55;8.60;;;4.53;;
19189;SDS011;9727;50.200;19.038;2023-07-20T10:48:24;5.82;;;4.90;;
19189;SDS011;9727;50.200;19.038;2023-07-20T10:51:10;6.82;;;5.05;;
19189;SDS011;9727;50.200;19.038;2023-07-20T10:53:37;8.20;;;5.28;;
19189;SDS011;9727;50.200;19.038;2023-07-20T10:56:11;5.93;;;4.80;;
19189;SDS011;9727;50.200;19.038;2023-07-20T10:58:42;6.65;;;4.70;;
19189;SDS011;9727;50.200;19.038;2023-07-20T11:01:13;4.78;;;4.32;;
19189;SDS011;9727;50.200;19.038;2023-07-20T11:03:48;6.05;;;4.45;;
19189;SDS011;9727;50.200;19.038;2023-07-20T11:06:32;4.65;;;4.13;;
19189;SDS011;9727;50.200;19.038;2023-07-20T11:09:07;4.75;;;3.17;;
19189;SDS011;9727;50.200;19.038;2023-07-20T11:11:40;4.30;;;3.00;;
19189;SDS011;9727;50.200;19.038;2023-07-20T11:14:11;4.72;;;2.83;;
19189;SDS011;9727;50.200;19.038;2023-07-20T11:16:49;3.65;;;3.30;;
19189;SDS011;9727;50.200;19.038;2023-07-20T11:19:22;4.03;;;2.92;;
19189;SDS011;9727;50.200;19.038;2023-07-20T11:21:51;2.35;;;2.08;;
19189;SDS011;9727;50.200;19.038;2023-07-20T11:24:19;3.20;;;2.08;;
19189;SDS011;9727;50.200;19.038;2023-07-20T11:26:47;2.75;;;2.17;;
19189;SDS011;9727;50.200;19.038;2023-07-20T11:29:21;2.85;;;2.05;;
19189;SDS011;9727;50.200;19.038;2023-07-20T11:31:51;3.25;;;2.33;;
19189;SDS011;9727;50.200;19.038;2023-07-20T11:34:19;2.53;;;2.22;;
19189;SDS011;9727;50.200;19.038;2023-07-20T11:37:05;2.30;;;2.10;;
19189;SDS011;9727;50.200;19.038;2023-07-20T11:39:32;2.35;;;2.00;;
19189;SDS011;9727;50.200;19.038;2023-07-20T11:42:10;3.60;;;1.98;;
19189;SDS011;9727;50.200;19.038;2023-07-20T11:44:53;4.28;;;2.35;;
19189;SDS011;9727;50.200;19.038;2023-07-20T11:47:24;4.40;;;2.10;;
19189;SDS011;9727;50.200;19.038;2023-07-20T11:49:55;5.53;;;2.30;;
19189;SDS011;9727;50.200;19.038;2023-07-20T11:52:31;2.20;;;2.00;;
19189;SDS011;9727;50.200;19.038;2023-07-20T11:54:57;3.92;;;2.28;;
19189;SDS011;9727;50.200;19.038;2023-07-20T11:57:26;3.28;;;2.10;;
19189;SDS011;9727;50.200;19.038;2023-07-20T11:59:53;3.15;;;2.15;;
19189;SDS011;9727;50.200;19.038;2023-07-20T12:02:20;2.60;;;1.98;;
19189;SDS011;9727;50.200;19.038;2023-07-20T12:04:47;3.10;;;2.58;;
19189;SDS011;9727;50.200;19.038;2023-07-20T12:07:21;3.50;;;2.40;;
19189;SDS011;9727;50.200;19.038;2023-07-20T12:12:33;2.55;;;1.92;;
19189;SDS011;9727;50.200;19.038;2023-07-20T12:15:26;2.60;;;2.08;;
19189;SDS011;9727;50.200;19.038;2023-07-20T12:17:57;4.25;;;2.67;;
19189;SDS011;9727;50.200;19.038;2023-07-20T12:20:25;3.35;;;2.15;;
19189;SDS011;9727;50.200;19.038;2023-07-20T12:22:52;3.15;;;1.95;;
19189;SDS011;9727;50.200;19.038;2023-07-20T12:25:37;4.00;;;2.38;;
19189;SDS011;9727;50.200;19.038;2023-07-20T12:28:08;4.38;;;2.22;;
19189;SDS011;9727;50.200;19.038;2023-07-20T12:30:35;3.67;;;2.40;;
19189;SDS011;9727;50.200;19.038;2023-07-20T12:33:10;5.53;;;2.30;;
19189;SDS011;9727;50.200;19.038;2023-07-20T12:35:44;3.33;;;2.40;;
19189;SDS011;9727;50.200;19.038;2023-07-20T12:38:29;3.53;;;2.45;;
19189;SDS011;9727;50.200;19.038;2023-07-20T12:41:24;3.13;;;2.40;;
19189;SDS011;9727;50.200;19.038;2023-07-20T12:43:55;2.45;;;2.22;;
19189;SDS011;9727;50.200;19.038;2023-07-20T12:46:23;3.42;;;2.40;;
19189;SDS011;9727;50.200;19.038;2023-07-20T12:48:53;3.08;;;2.13;;
19189;SDS011;9727;50.200;19.038;2023-07-20T12:51:20;3.50;;;2.20;;
19189;SDS011;9727;50.200;19.038;2023-07-20T12:53:47;4.38;;;2.60;;
19189;SDS011;9727;50.200;19.038;2023-07-20T12:56:17;3.47;;;2.05;;
19189;SDS011;9727;50.200;19.038;2023-07-20T12:58:48;3.58;;;2.53;;
19189;SDS011;9727;50.200;19.038;2023-07-20T13:01:23;7.63;;;2.30;;
19189;SDS011;9727;50.200;19.038;2023-07-20T13:03:51;2.13;;;1.90;;
19189;SDS011;9727;50.200;19.038;2023-07-20T13:06:22;2.40;;;2.15;;
19189;SDS011;9727;50.200;19.038;2023-07-20T13:08:54;3.05;;;2.20;;
19189;SDS011;9727;50.200;19.038;2023-07-20T13:11:23;4.55;;;2.05;;
19189;SDS011;9727;50.200;19.038;2023-07-20T13:13:50;3.78;;;2.10;;
19189;SDS011;9727;50.200;19.038;2023-07-20T13:16:25;2.88;;;1.75;;
19189;SDS011;9727;50.200;19.038;2023-07-20T13:18:53;2.53;;;2.00;;
19189;SDS011;9727;50.200;19.038;2023-07-20T13:21:25;3.13;;;2.03;;
19189;SDS011;9727;50.200;19.038;2023-07-20T13:23:52;2.85;;;2.03;;
19189;SDS011;9727;50.200;19.038;2023-07-20T13:26:19;4.00;;;2.17;;
19189;SDS011;9727;50.200;19.038;2023-07-20T13:28:46;5.15;;;1.80;;
19189;SDS011;9727;50.200;19.038;2023-07-20T13:31:21;3.42;;;2.00;;
19189;SDS011;9727;50.200;19.038;2023-07-20T13:33:49;3.30;;;1.60;;
19189;SDS011;9727;50.200;19.038;2023-07-20T13:36:20;4.30;;;1.75;;
19189;SDS011;9727;50.200;19.038;2023-07-20T13:39:05;2.80;;;2.10;;
19189;SDS011;9727;50.200;19.038;2023-07-20T13:41:33;4.57;;;1.90;;
19189;SDS011;9727;50.200;19.038;2023-07-20T13:43:59;3.38;;;1.80;;
19189;SDS011;9727;50.200;19.038;2023-07-20T13:46:27;3.25;;;1.70;;
19189;SDS011;9727;50.200;19.038;2023-07-20T13:48:55;2.45;;;1.73;;
19189;SDS011;9727;50.200;19.038;2023-07-20T13:51:24;2.33;;;1.60;;
19189;SDS011;9727;50.200;19.038;2023-07-20T13:53:51;2.25;;;1.90;;
19189;SDS011;9727;50.200;19.038;2023-07-20T13:56:19;3.30;;;1.80;;
19189;SDS011;9727;50.200;19.038;2023-07-20T13:58:46;2.35;;;1.88;;
19189;SDS011;9727;50.200;19.038;2023-07-20T14:01:18;3.75;;;2.00;;
19189;SDS011;9727;50.200;19.038;2023-07-20T14:03:50;2.50;;;1.60;;
19189;SDS011;9727;50.200;19.038;2023-07-20T14:06:24;3.53;;;1.60;;
19189;SDS011;9727;50.200;19.038;2023-07-20T14:08:52;2.38;;;1.88;;
19189;SDS011;9727;50.200;19.038;2023-07-20T14:11:22;3.45;;;2.10;;
19189;SDS011;9727;50.200;19.038;2023-07-20T14:13:49;2.67;;;1.80;;
19189;SDS011;9727;50.200;19.038;2023-07-20T14:16:21;3.15;;;1.65;;
19189;SDS011;9727;50.200;19.038;2023-07-20T14:18:49;3.55;;;1.60;;
19189;SDS011;9727;50.200;19.038;2023-07-20T14:21:20;2.20;;;1.88;;
19189;SDS011;9727;50.200;19.038;2023-07-20T14:23:49;1.95;;;1.70;;
19189;SDS011;9727;50.200;19.038;2023-07-20T14:26:21;3.60;;;1.80;;
19189;SDS011;9727;50.200;19.038;2023-07-20T14:28:49;4.03;;;1.95;;
19189;SDS011;9727;50.200;19.038;2023-07-20T14:31:22;3.50;;;1.80;;
19189;SDS011;9727;50.200;19.038;2023-07-20T14:33:48;3.58;;;2.03;;
19189;SDS011;9727;50.200;19.038;2023-07-20T14:36:22;3.78;;;2.10;;
19189;SDS011;9727;50.200;19.038;2023-07-20T14:39:02;3.00;;;1.80;;
19189;SDS011;9727;50.200;19.038;2023-07-20T14:41:32;5.38;;;1.88;;
19189;SDS011;9727;50.200;19.038;2023-07-20T14:43:59;4.53;;;2.20;;
19189;SDS011;9727;50.200;19.038;2023-07-20T14:46:25;3.22;;;2.10;;
19189;SDS011;9727;50.200;19.038;2023-07-20T14:48:52;6.22;;;2.03;;
19189;SDS011;9727;50.200;19.038;2023-07-20T14:51:21;3.53;;;2.15;;
19189;SDS011;9727;50.200;19.038;2023-07-20T14:53:48;3.58;;;2.28;;
19189;SDS011;9727;50.200;19.038;2023-07-20T14:56:22;4.05;;;2.05;;
19189;SDS011;9727;50.200;19.038;2023-07-20T14:58:49;3.92;;;2.10;;
19189;SDS011;9727;50.200;19.038;2023-07-20T15:01:20;5.70;;;2.15;;
19189;SDS011;9727;50.200;19.038;2023-07-20T15:03:48;2.92;;;1.85;;
19189;SDS011;9727;50.200;19.038;2023-07-20T15:06:19;3.20;;;2.00;;
19189;SDS011;9727;50.200;19.038;2023-07-20T15:08:47;4.55;;;2.00;;
19189;SDS011;9727;50.200;19.038;2023-07-20T15:14:02;4.18;;;1.95;;
19189;SDS011;9727;50.200;19.038;2023-07-20T15:16:29;2.88;;;2.13;;
19189;SDS011;9727;50.200;19.038;2023-07-20T15:19:00;4.40;;;1.92;;